createdAt,value
2022-09-12T00:01:45.559Z,98.11
2022-09-12T00:04:51.571Z,98.57
2022-09-12T00:07:57.228Z,98.89
2022-09-12T00:11:07.646Z,99.09
2022-09-12T00:14:18.944Z,99.34
2022-09-12T00:17:24.114Z,99.58
2022-09-12T00:20:29.644Z,99.93
2022-09-12T00:23:35.201Z,99.93
2022-09-12T00:26:40.585Z,100.00
2022-09-12T00:29:46.340Z,100.00
2022-09-12T00:32:51.964Z,100.00
2022-09-12T00:35:57.580Z,100.00
2022-09-12T00:39:04.263Z,100.00
2022-09-12T00:42:12.467Z,100.00
2022-09-12T00:45:28.105Z,100.00
2022-09-12T00:48:44.725Z,100.00
2022-09-12T00:51:59.791Z,99.86
2022-09-12T00:55:13.490Z,100.00
2022-09-12T00:58:44.004Z,100.00
2022-09-12T01:01:52.395Z,100.00
2022-09-12T01:04:57.974Z,98.86
2022-09-12T01:08:05.000Z,98.39
2022-09-12T01:11:13.312Z,99.84
2022-09-12T01:14:20.597Z,100.00
2022-09-12T01:17:37.956Z,100.00
2022-09-12T01:21:07.263Z,100.00
2022-09-12T01:24:42.262Z,100.00
2022-09-12T01:28:24.529Z,100.00
2022-09-12T01:31:41.679Z,100.00
2022-09-12T01:34:55.159Z,100.00
2022-09-12T01:38:14.076Z,99.35
2022-09-12T01:41:59.652Z,99.65
2022-09-12T01:45:12.115Z,100.00
2022-09-12T01:48:27.101Z,97.61
2022-09-12T01:51:40.491Z,95.26
2022-09-12T01:54:56.447Z,95.20
2022-09-12T01:58:15.052Z,95.29
2022-09-12T02:01:25.353Z,95.14
2022-09-12T02:04:36.414Z,94.31
2022-09-12T02:07:53.530Z,95.89
2022-09-12T02:11:08.406Z,96.13
2022-09-12T02:14:24.549Z,95.25
2022-09-12T02:17:32.699Z,96.62
2022-09-12T02:20:49.005Z,96.65
2022-09-12T02:24:00.125Z,96.08
2022-09-12T02:27:26.432Z,95.79
2022-09-12T02:30:40.349Z,95.84
2022-09-12T02:33:50.343Z,96.02
2022-09-12T02:37:13.525Z,96.06
2022-09-12T02:40:19.595Z,96.81
2022-09-12T02:43:25.533Z,98.14
2022-09-12T02:46:41.620Z,97.47
2022-09-12T02:49:47.778Z,97.75
2022-09-12T02:52:55.889Z,98.20
2022-09-12T02:56:01.773Z,97.54
2022-09-12T02:59:09.863Z,97.87
2022-09-12T03:02:44.581Z,99.40
2022-09-12T03:06:00.306Z,97.91
2022-09-12T03:09:21.639Z,98.19
2022-09-12T03:12:45.402Z,98.16
2022-09-12T03:16:23.201Z,97.90
2022-09-12T03:19:57.987Z,98.53
2022-09-12T03:23:11.938Z,99.58
2022-09-12T03:26:26.155Z,100.00
2022-09-12T03:29:32.545Z,100.00
2022-09-12T03:32:50.831Z,100.00
2022-09-12T03:35:56.841Z,100.00
2022-09-12T03:39:02.447Z,100.00
2022-09-12T03:42:07.927Z,100.00
2022-09-12T03:45:13.561Z,100.00
2022-09-12T03:48:19.320Z,100.00
2022-09-12T03:51:24.712Z,100.00
2022-09-12T03:54:30.323Z,99.24
2022-09-12T03:57:35.738Z,99.58
2022-09-12T04:00:43.093Z,100.00
2022-09-12T04:03:52.197Z,100.00
2022-09-12T04:06:57.901Z,100.00
2022-09-12T04:10:04.080Z,100.00
2022-09-12T04:13:09.740Z,100.00
2022-09-12T04:16:16.923Z,100.00
2022-09-12T04:19:23.957Z,100.00
2022-09-12T04:22:30.492Z,100.00
2022-09-12T04:25:35.800Z,100.00
2022-09-12T04:28:41.720Z,100.00
2022-09-12T04:31:46.924Z,100.00
2022-09-12T04:34:52.984Z,100.00
2022-09-12T04:37:58.847Z,100.00
2022-09-12T04:41:14.707Z,100.00
2022-09-12T04:44:19.988Z,100.00
2022-09-12T04:47:25.112Z,100.00
2022-09-12T04:50:30.691Z,100.00
2022-09-12T04:53:38.069Z,100.00
2022-09-12T04:56:47.328Z,100.00
2022-09-12T04:59:52.533Z,100.00
2022-09-12T05:02:58.160Z,100.00
2022-09-12T05:06:04.123Z,100.00
2022-09-12T05:09:14.589Z,100.00
2022-09-12T05:12:20.384Z,100.00
2022-09-12T05:15:26.568Z,100.00
2022-09-12T05:18:36.893Z,100.00
2022-09-12T05:21:42.444Z,100.00
2022-09-12T05:24:50.746Z,100.00
2022-09-12T05:27:57.072Z,100.00
2022-09-12T05:31:05.880Z,100.00
2022-09-12T05:34:12.043Z,100.00
2022-09-12T05:37:17.993Z,100.00
2022-09-12T05:40:23.528Z,100.00
2022-09-12T05:43:28.970Z,100.00
2022-09-12T05:46:40.171Z,100.00
2022-09-12T05:49:48.422Z,100.00
2022-09-12T05:52:55.355Z,100.00
2022-09-12T05:56:13.036Z,100.00
2022-09-12T05:59:21.707Z,100.00
2022-09-12T06:02:26.894Z,100.00
2022-09-12T06:05:33.700Z,100.00
2022-09-12T06:08:40.372Z,100.00
2022-09-12T06:11:47.063Z,100.00
2022-09-12T06:14:52.689Z,100.00
2022-09-12T06:17:58.437Z,100.00
2022-09-12T06:21:09.073Z,100.00
2022-09-12T06:24:14.422Z,100.00
2022-09-12T06:27:20.104Z,100.00
2022-09-12T06:30:25.684Z,100.00
2022-09-12T06:33:33.690Z,100.00
2022-09-12T06:36:43.442Z,100.00
2022-09-12T06:39:49.159Z,100.00
2022-09-12T06:42:54.825Z,100.00
2022-09-12T06:46:13.303Z,100.00
2022-09-12T06:49:18.945Z,100.00
2022-09-12T06:52:24.166Z,100.00
2022-09-12T06:55:30.373Z,100.00
2022-09-12T06:58:36.281Z,100.00
2022-09-12T07:01:42.262Z,99.39
2022-09-12T07:04:50.212Z,98.52
2022-09-12T07:07:56.285Z,98.28
2022-09-12T07:11:20.419Z,98.54
2022-09-12T07:14:26.382Z,98.61
2022-09-12T07:17:32.385Z,98.65
2022-09-12T07:20:38.670Z,98.82
2022-09-12T07:23:45.251Z,98.22
2022-09-12T07:26:50.935Z,98.06
2022-09-12T07:29:56.529Z,98.29
2022-09-12T07:33:02.384Z,97.81
2022-09-12T07:36:12.073Z,97.02
2022-09-12T07:39:17.777Z,96.60
2022-09-12T07:42:23.633Z,95.73
2022-09-12T07:45:30.276Z,94.29
2022-09-12T07:48:36.995Z,93.94
2022-09-12T07:51:42.713Z,93.13
2022-09-12T07:54:48.628Z,92.65
2022-09-12T07:57:54.448Z,92.13
2022-09-12T08:01:14.101Z,90.29
2022-09-12T08:04:19.703Z,89.95
2022-09-12T08:07:25.560Z,90.80
2022-09-12T08:10:31.202Z,89.01
2022-09-12T08:13:38.533Z,88.59
2022-09-12T08:16:44.877Z,87.54
2022-09-12T08:19:50.594Z,87.34
2022-09-12T08:22:56.918Z,87.41
2022-09-12T08:26:06.383Z,86.91
2022-09-12T08:29:12.547Z,86.38
2022-09-12T08:32:18.025Z,85.95
2022-09-12T08:35:23.576Z,84.96
2022-09-12T08:38:30.321Z,85.52
2022-09-12T08:41:49.624Z,83.64
2022-09-12T08:45:19.341Z,83.69
2022-09-12T08:48:24.847Z,83.38
2022-09-12T08:51:34.754Z,83.03
2022-09-12T08:54:40.938Z,83.73
2022-09-12T08:57:47.589Z,82.78
2022-09-12T09:01:14.888Z,81.71
2022-09-12T09:04:57.938Z,82.05
2022-09-12T09:08:31.399Z,81.82
2022-09-12T09:11:43.180Z,82.17
2022-09-12T09:15:02.622Z,82.47
2022-09-12T09:18:23.881Z,80.51
2022-09-12T09:21:32.034Z,80.35
2022-09-12T09:24:43.205Z,79.71
2022-09-12T09:28:02.317Z,76.48
2022-09-12T09:31:17.461Z,77.93
2022-09-12T09:34:29.612Z,78.15
2022-09-12T09:37:43.675Z,78.58
2022-09-12T09:40:52.259Z,77.70
2022-09-12T09:43:59.011Z,76.81
2022-09-12T09:47:05.620Z,77.17
2022-09-12T09:50:17.463Z,77.77
2022-09-12T09:53:57.585Z,77.37
2022-09-12T09:57:04.165Z,72.94
2022-09-12T10:00:27.599Z,73.70
2022-09-12T10:03:41.086Z,75.70
2022-09-12T10:06:47.017Z,71.37
2022-09-12T10:10:15.494Z,68.07
2022-09-12T10:13:31.395Z,70.56
2022-09-12T10:16:53.567Z,72.88
2022-09-12T10:20:19.933Z,72.61
2022-09-12T10:23:41.219Z,72.41
2022-09-12T10:26:56.919Z,70.63
2022-09-12T10:30:15.127Z,71.36
2022-09-12T10:33:21.021Z,68.78
2022-09-12T10:36:36.444Z,67.38
2022-09-12T10:39:50.954Z,67.26
2022-09-12T10:43:00.119Z,67.65
2022-09-12T10:46:27.659Z,68.26
2022-09-12T10:49:40.454Z,68.51
2022-09-12T10:52:46.339Z,67.63
2022-09-12T10:56:10.114Z,67.72
2022-09-12T10:59:56.005Z,68.13
2022-09-12T11:03:37.617Z,65.91
2022-09-12T11:06:53.837Z,64.89
2022-09-12T11:10:23.547Z,64.78
2022-09-12T11:13:56.063Z,64.63
2022-09-12T11:17:16.805Z,65.43
2022-09-12T11:20:25.650Z,65.73
2022-09-12T11:23:42.636Z,65.31
2022-09-12T11:27:04.890Z,64.26
2022-09-12T11:30:11.138Z,64.51
2022-09-12T12:27:46.288Z,61.26
2022-09-12T12:30:54.681Z,61.37
2022-09-12T12:34:05.653Z,62.51
2022-09-12T12:37:19.802Z,60.04
2022-09-12T12:40:27.433Z,60.72
2022-09-12T12:43:32.722Z,60.43
2022-09-12T12:46:39.092Z,59.16
2022-09-12T12:49:56.344Z,59.38
2022-09-12T12:53:06.111Z,60.59
2022-09-12T12:56:28.684Z,60.03
2022-09-12T12:59:34.864Z,58.86
2022-09-12T13:02:50.674Z,58.19
2022-09-12T13:06:02.936Z,58.78
2022-09-12T13:09:39.855Z,59.58
2022-09-12T13:12:48.090Z,60.03
2022-09-12T13:15:54.096Z,58.23
2022-09-12T13:19:08.242Z,59.43
2022-09-12T13:22:13.302Z,59.09
2022-09-12T13:25:20.348Z,57.81
2022-09-12T13:28:26.802Z,57.94
2022-09-12T13:31:33.063Z,59.12
2022-09-12T13:34:56.118Z,59.79
2022-09-12T13:38:37.417Z,59.51
2022-09-12T13:41:54.715Z,58.62
2022-09-12T13:45:22.251Z,59.74
2022-09-12T13:48:28.296Z,58.98
2022-09-12T13:51:34.754Z,58.77
2022-09-12T13:54:41.115Z,59.28
2022-09-12T13:57:55.940Z,59.02
2022-09-12T14:01:10.251Z,59.23
2022-09-12T14:04:41.757Z,59.42
2022-09-12T14:08:05.134Z,57.94
2022-09-12T14:11:12.254Z,57.39
2022-09-12T14:14:34.436Z,58.56
2022-09-12T14:17:40.407Z,57.72
2022-09-12T14:20:47.567Z,58.50
2022-09-12T14:23:55.369Z,58.61
2022-09-12T14:27:01.421Z,59.53
2022-09-12T14:30:28.732Z,58.11
2022-09-12T14:33:56.674Z,59.37
2022-09-12T14:37:07.119Z,58.88
2022-09-12T14:40:24.158Z,59.65
2022-09-12T14:43:29.636Z,60.60
2022-09-12T14:46:39.934Z,60.47
2022-09-12T14:49:46.005Z,59.52
2022-09-12T14:53:21.697Z,57.70
2022-09-12T14:56:45.451Z,58.75
2022-09-12T14:59:51.135Z,60.58
2022-09-12T15:03:23.929Z,58.52
2022-09-12T15:06:38.117Z,59.02
2022-09-12T15:09:47.272Z,58.44
2022-09-12T15:13:12.444Z,59.95
2022-09-12T15:16:17.955Z,59.48
2022-09-12T15:19:23.555Z,59.64
2022-09-12T15:22:28.780Z,59.78
2022-09-12T15:25:34.194Z,60.11
2022-09-12T15:28:40.153Z,58.97
2022-09-12T15:31:47.877Z,60.70
2022-09-12T15:34:55.334Z,60.11
2022-09-12T15:38:00.960Z,60.49
2022-09-12T15:41:19.687Z,60.25
2022-09-12T15:44:24.993Z,58.52
2022-09-12T15:47:30.319Z,59.15
2022-09-12T15:50:36.418Z,58.73
2022-09-12T15:53:42.377Z,59.18
2022-09-12T15:56:47.712Z,59.59
2022-09-12T15:59:53.406Z,58.90
2022-09-12T16:02:58.679Z,59.88
2022-09-12T16:06:04.777Z,58.92
2022-09-12T16:09:14.802Z,59.71
2022-09-12T16:12:21.674Z,58.73
2022-09-12T16:15:26.978Z,58.78
2022-09-12T16:18:32.260Z,60.10
2022-09-12T16:21:38.569Z,59.03
2022-09-12T16:24:44.115Z,60.48
2022-09-12T16:27:50.365Z,61.52
2022-09-12T16:31:00.607Z,61.92
2022-09-12T16:34:06.928Z,61.95
2022-09-12T16:37:12.285Z,61.64
2022-09-12T16:40:19.819Z,60.89
2022-09-12T16:43:25.643Z,60.61
2022-09-12T16:46:31.211Z,60.94
2022-09-12T16:49:36.959Z,61.96
2022-09-12T16:52:42.244Z,62.57
2022-09-12T16:55:51.563Z,63.79
2022-09-12T16:58:57.109Z,64.15
2022-09-12T17:02:03.706Z,65.09
2022-09-12T17:05:10.012Z,66.78
2022-09-12T17:08:15.346Z,66.84
2022-09-12T17:11:27.204Z,68.48
2022-09-12T17:14:32.255Z,66.98
2022-09-12T17:17:37.356Z,68.63
2022-09-12T17:20:42.695Z,68.69
2022-09-12T17:23:48.392Z,69.20
2022-09-12T17:26:55.010Z,69.42
2022-09-12T17:30:00.874Z,68.50
2022-09-12T17:33:06.805Z,68.78
2022-09-12T17:36:18.569Z,69.64
2022-09-12T17:39:24.432Z,69.47
2022-09-12T17:42:30.566Z,71.06
2022-09-12T17:45:36.545Z,71.54
2022-09-12T17:48:42.449Z,71.76
2022-09-12T17:51:48.947Z,71.54
2022-09-12T17:54:54.835Z,71.65
2022-09-12T17:58:02.983Z,71.92
2022-09-12T18:01:34.652Z,72.92
2022-09-12T18:04:42.046Z,74.15
2022-09-12T18:07:47.720Z,74.98
2022-09-12T18:10:53.879Z,74.63
2022-09-12T18:14:00.252Z,74.90
2022-09-12T18:17:08.593Z,75.38
2022-09-12T18:20:14.437Z,74.83
2022-09-12T18:23:20.394Z,74.44
2022-09-12T18:26:28.499Z,75.53
2022-09-12T18:29:34.429Z,76.37
2022-09-12T18:32:39.889Z,76.15
2022-09-12T18:35:45.361Z,77.10
2022-09-12T18:38:52.586Z,77.31
2022-09-12T18:41:58.376Z,77.43
2022-09-12T18:45:04.430Z,76.02
2022-09-12T18:48:09.731Z,76.56
2022-09-12T18:51:18.599Z,77.45
2022-09-12T18:54:24.422Z,77.23
2022-09-12T18:57:35.328Z,77.44
2022-09-12T19:00:41.865Z,77.62
2022-09-12T19:03:48.842Z,77.78
2022-09-12T19:06:54.422Z,77.11
2022-09-12T19:10:00.629Z,77.00
2022-09-12T19:13:05.802Z,77.42
2022-09-12T19:16:14.731Z,77.33
2022-09-12T19:19:21.721Z,77.18
2022-09-12T19:22:28.030Z,77.57
2022-09-12T19:25:33.647Z,77.50
2022-09-12T19:28:39.399Z,78.21
2022-09-12T19:31:46.979Z,80.67
2022-09-12T19:34:52.475Z,79.78
2022-09-12T19:37:58.100Z,80.72
2022-09-12T19:41:07.416Z,81.64
2022-09-12T19:44:13.928Z,80.79
2022-09-12T19:47:19.353Z,83.15
2022-09-12T19:50:25.275Z,82.59
2022-09-12T19:53:32.062Z,84.10
2022-09-12T19:56:37.644Z,83.96
2022-09-12T19:59:43.503Z,84.39
2022-09-12T20:02:53.387Z,85.33
2022-09-12T20:06:26.257Z,85.74
2022-09-12T20:09:31.854Z,86.12
2022-09-12T20:12:37.422Z,87.25
2022-09-12T20:15:43.217Z,87.58
2022-09-12T20:18:49.788Z,87.83
2022-09-12T20:21:55.448Z,88.01
2022-09-12T20:25:01.272Z,87.90
2022-09-12T20:28:07.215Z,87.75
2022-09-12T20:31:16.718Z,88.10
2022-09-12T20:34:22.797Z,88.80
2022-09-12T20:37:30.570Z,88.69
2022-09-12T20:40:35.884Z,89.61
2022-09-12T20:43:41.363Z,89.19
2022-09-12T20:46:47.170Z,90.34
2022-09-12T20:49:53.080Z,90.96
2022-09-12T20:52:59.505Z,90.32
2022-09-12T20:56:07.248Z,91.08
2022-09-12T20:59:13.514Z,91.43
2022-09-12T21:02:19.437Z,91.54
2022-09-12T21:05:25.298Z,91.03
2022-09-12T21:08:32.967Z,91.59
2022-09-12T21:11:38.485Z,92.21
2022-09-12T21:14:43.965Z,92.54
2022-09-12T21:17:49.775Z,93.83
2022-09-12T21:20:56.957Z,93.79
2022-09-12T21:24:03.986Z,95.63
2022-09-12T21:27:09.179Z,94.61
2022-09-12T21:30:15.005Z,95.44
2022-09-12T21:33:21.375Z,95.40
2022-09-12T21:36:27.302Z,96.01
2022-09-12T21:39:32.497Z,96.44
2022-09-12T21:42:38.106Z,96.54
2022-09-12T21:45:43.965Z,96.87
2022-09-12T21:48:49.841Z,96.93
2022-09-12T21:51:55.588Z,97.03
2022-09-12T21:55:01.297Z,97.17
2022-09-12T21:58:07.295Z,97.72
2022-09-12T22:01:13.417Z,98.04
2022-09-12T22:04:19.100Z,97.69
2022-09-12T22:07:25.442Z,98.10
2022-09-12T22:10:31.089Z,97.62
2022-09-12T22:13:39.498Z,99.24
2022-09-12T22:16:45.592Z,99.51
2022-09-12T22:19:51.251Z,99.37
2022-09-12T22:23:15.507Z,98.55
2022-09-12T22:26:21.068Z,99.04
2022-09-12T22:29:27.085Z,99.74
2022-09-12T22:32:36.598Z,99.09
2022-09-12T22:35:42.725Z,98.73
2022-09-12T22:38:48.774Z,100.00
2022-09-12T22:41:54.454Z,99.21
2022-09-12T22:45:00.019Z,99.62
2022-09-12T22:48:08.564Z,99.67
2022-09-12T22:51:14.861Z,100.00
2022-09-12T22:54:20.060Z,100.00
2022-09-12T22:57:26.212Z,100.00
2022-09-12T23:00:32.404Z,100.00
2022-09-12T23:03:38.232Z,100.00
2022-09-12T23:06:43.611Z,100.00
2022-09-12T23:09:49.059Z,100.00
2022-09-12T23:12:55.642Z,100.00
2022-09-12T23:16:03.337Z,100.00
2022-09-12T23:19:09.083Z,100.00
2022-09-12T23:22:14.561Z,100.00
2022-09-12T23:25:23.928Z,100.00
2022-09-12T23:28:30.022Z,100.00
2022-09-12T23:31:35.349Z,100.00
2022-09-12T23:34:40.790Z,100.00
2022-09-12T23:37:47.146Z,100.00
2022-09-12T23:40:52.732Z,100.00
2022-09-12T23:43:58.989Z,100.00
2022-09-12T23:47:04.674Z,100.00
2022-09-12T23:50:10.574Z,100.00
2022-09-12T23:53:18.275Z,100.00
2022-09-12T23:56:23.560Z,100.00
2022-09-12T23:59:31.421Z,100.00
